sensor_id;sensor_type;location;lat;lon;timestamp;temperature;humidity
62573;DHT22;48626;51.678;5.806;2023-02-18T00:02:10;12.30;99.90
62573;DHT22;48626;51.678;5.806;2023-02-18T00:04:36;12.30;99.90
62573;DHT22;48626;51.678;5.806;2023-02-18T00:07:02;12.30;99.90
62573;DHT22;48626;51.678;5.806;2023-02-18T00:09:27;12.30;99.90
62573;DHT22;48626;51.678;5.806;2023-02-18T00:11:53;12.30;99.90
62573;DHT22;48626;51.678;5.806;2023-02-18T00:14:19;12.20;99.90
62573;DHT22;48626;51.678;5.806;2023-02-18T00:16:45;12.30;99.90
62573;DHT22;48626;51.678;5.806;2023-02-18T00:19:19;12.30;99.90
62573;DHT22;48626;51.678;5.806;2023-02-18T00:21:44;12.20;99.90
62573;DHT22;48626;51.678;5.806;2023-02-18T00:24:12;12.20;99.90
62573;DHT22;48626;51.678;5.806;2023-02-18T00:26:40;12.20;99.90
62573;DHT22;48626;51.678;5.806;2023-02-18T00:29:06;12.20;99.90
62573;DHT22;48626;51.678;5.806;2023-02-18T00:31:35;12.20;99.90
62573;DHT22;48626;51.678;5.806;2023-02-18T00:34:02;12.20;99.90
62573;DHT22;48626;51.678;5.806;2023-02-18T00:36:28;12.20;99.90
62573;DHT22;48626;51.678;5.806;2023-02-18T00:38:56;12.20;99.90
62573;DHT22;48626;51.678;5.806;2023-02-18T00:41:24;12.30;99.90
62573;DHT22;48626;51.678;5.806;2023-02-18T00:43:50;12.30;99.90
62573;DHT22;48626;51.678;5.806;2023-02-18T00:46:15;12.30;99.90
62573;DHT22;48626;51.678;5.806;2023-02-18T00:48:41;12.30;99.90
62573;DHT22;48626;51.678;5.806;2023-02-18T00:51:07;12.30;99.90
62573;DHT22;48626;51.678;5.806;2023-02-18T00:53:33;12.30;99.90
62573;DHT22;48626;51.678;5.806;2023-02-18T00:55:59;12.30;99.90
62573;DHT22;48626;51.678;5.806;2023-02-18T00:58:25;12.30;99.90
62573;DHT22;48626;51.678;5.806;2023-02-18T01:00:52;12.20;99.90
62573;DHT22;48626;51.678;5.806;2023-02-18T01:03:18;12.30;99.90
62573;DHT22;48626;51.678;5.806;2023-02-18T01:05:44;12.30;99.90
62573;DHT22;48626;51.678;5.806;2023-02-18T01:08:10;12.30;99.90
62573;DHT22;48626;51.678;5.806;2023-02-18T01:10:40;12.30;99.90
62573;DHT22;48626;51.678;5.806;2023-02-18T01:13:07;12.20;99.90
62573;DHT22;48626;51.678;5.806;2023-02-18T01:15:33;12.20;99.90
62573;DHT22;48626;51.678;5.806;2023-02-18T01:17:59;12.20;99.90
62573;DHT22;48626;51.678;5.806;2023-02-18T01:20:24;12.20;99.90
62573;DHT22;48626;51.678;5.806;2023-02-18T01:22:50;12.20;99.90
62573;DHT22;48626;51.678;5.806;2023-02-18T01:25:16;12.20;99.90
62573;DHT22;48626;51.678;5.806;2023-02-18T01:27:42;12.20;99.90
62573;DHT22;48626;51.678;5.806;2023-02-18T01:30:11;12.20;99.90
62573;DHT22;48626;51.678;5.806;2023-02-18T01:32:38;12.20;99.90
62573;DHT22;48626;51.678;5.806;2023-02-18T01:35:05;12.20;99.90
62573;DHT22;48626;51.678;5.806;2023-02-18T01:37:31;12.20;99.90
62573;DHT22;48626;51.678;5.806;2023-02-18T01:39:56;12.20;99.90
62573;DHT22;48626;51.678;5.806;2023-02-18T01:42:25;12.30;99.90
62573;DHT22;48626;51.678;5.806;2023-02-18T01:44:51;12.20;99.90
62573;DHT22;48626;51.678;5.806;2023-02-18T01:47:17;12.20;99.90
62573;DHT22;48626;51.678;5.806;2023-02-18T01:49:46;12.20;99.90
62573;DHT22;48626;51.678;5.806;2023-02-18T01:52:23;12.20;99.90
62573;DHT22;48626;51.678;5.806;2023-02-18T01:54:55;12.30;99.90
62573;DHT22;48626;51.678;5.806;2023-02-18T01:57:34;12.20;99.90
62573;DHT22;48626;51.678;5.806;2023-02-18T02:00:06;12.10;99.90
62573;DHT22;48626;51.678;5.806;2023-02-18T02:02:36;12.10;99.90
62573;DHT22;48626;51.678;5.806;2023-02-18T02:05:03;12.10;99.90
62573;DHT22;48626;51.678;5.806;2023-02-18T02:07:29;12.10;99.90
62573;DHT22;48626;51.678;5.806;2023-02-18T02:09:56;12.10;99.90
62573;DHT22;48626;51.678;5.806;2023-02-18T02:15:43;12.00;99.90
62573;DHT22;48626;51.678;5.806;2023-02-18T02:18:15;11.90;99.90
62573;DHT22;48626;51.678;5.806;2023-02-18T02:32:20;11.80;99.90
62573;DHT22;48626;51.678;5.806;2023-02-18T02:40:35;11.80;99.90
62573;DHT22;48626;51.678;5.806;2023-02-18T02:46:02;11.80;99.90
62573;DHT22;48626;51.678;5.806;2023-02-18T02:48:59;11.80;99.90
62573;DHT22;48626;51.678;5.806;2023-02-18T02:51:40;11.80;99.90
62573;DHT22;48626;51.678;5.806;2023-02-18T02:54:23;11.80;99.90
62573;DHT22;48626;51.678;5.806;2023-02-18T02:57:00;11.70;99.90
62573;DHT22;48626;51.678;5.806;2023-02-18T02:59:28;11.70;99.90
62573;DHT22;48626;51.678;5.806;2023-02-18T03:10:57;11.80;99.90
62573;DHT22;48626;51.678;5.806;2023-02-18T03:24:39;11.70;99.90
62573;DHT22;48626;51.678;5.806;2023-02-18T03:27:16;11.60;99.90
62573;DHT22;48626;51.678;5.806;2023-02-18T03:29:45;11.70;99.90
62573;DHT22;48626;51.678;5.806;2023-02-18T03:32:15;11.70;99.90
62573;DHT22;48626;51.678;5.806;2023-02-18T03:34:46;11.60;99.90
62573;DHT22;48626;51.678;5.806;2023-02-18T03:37:14;11.70;99.90
62573;DHT22;48626;51.678;5.806;2023-02-18T03:39:43;11.70;99.90
62573;DHT22;48626;51.678;5.806;2023-02-18T03:42:10;11.70;99.90
62573;DHT22;48626;51.678;5.806;2023-02-18T03:44:36;11.70;99.90
62573;DHT22;48626;51.678;5.806;2023-02-18T03:47:01;11.70;99.90
62573;DHT22;48626;51.678;5.806;2023-02-18T03:49:27;11.70;99.90
62573;DHT22;48626;51.678;5.806;2023-02-18T03:51:53;11.70;99.90
62573;DHT22;48626;51.678;5.806;2023-02-18T03:54:18;11.70;99.90
62573;DHT22;48626;51.678;5.806;2023-02-18T03:56:45;11.70;99.90
62573;DHT22;48626;51.678;5.806;2023-02-18T03:59:11;11.70;99.90
62573;DHT22;48626;51.678;5.806;2023-02-18T04:01:37;11.70;99.90
62573;DHT22;48626;51.678;5.806;2023-02-18T04:04:03;11.60;99.90
62573;DHT22;48626;51.678;5.806;2023-02-18T04:06:28;11.70;99.90
62573;DHT22;48626;51.678;5.806;2023-02-18T04:08:54;11.70;99.90
62573;DHT22;48626;51.678;5.806;2023-02-18T04:11:20;11.70;99.90
62573;DHT22;48626;51.678;5.806;2023-02-18T04:13:45;11.70;99.90
62573;DHT22;48626;51.678;5.806;2023-02-18T04:16:11;11.70;99.90
62573;DHT22;48626;51.678;5.806;2023-02-18T04:18:37;11.70;99.90
62573;DHT22;48626;51.678;5.806;2023-02-18T04:21:03;11.60;99.90
62573;DHT22;48626;51.678;5.806;2023-02-18T04:23:29;11.60;99.90
62573;DHT22;48626;51.678;5.806;2023-02-18T04:25:54;11.60;99.90
62573;DHT22;48626;51.678;5.806;2023-02-18T04:28:20;11.60;99.90
62573;DHT22;48626;51.678;5.806;2023-02-18T04:30:46;11.60;99.90
62573;DHT22;48626;51.678;5.806;2023-02-18T04:33:13;11.60;99.90
62573;DHT22;48626;51.678;5.806;2023-02-18T04:35:38;11.50;99.90
62573;DHT22;48626;51.678;5.806;2023-02-18T04:38:09;11.60;99.90
62573;DHT22;48626;51.678;5.806;2023-02-18T04:40:35;11.50;99.90
62573;DHT22;48626;51.678;5.806;2023-02-18T04:43:01;11.60;99.90
62573;DHT22;48626;51.678;5.806;2023-02-18T04:45:27;11.50;99.90
62573;DHT22;48626;51.678;5.806;2023-02-18T04:47:53;11.50;99.90
62573;DHT22;48626;51.678;5.806;2023-02-18T04:50:20;11.50;99.90
62573;DHT22;48626;51.678;5.806;2023-02-18T04:52:46;11.50;99.90
62573;DHT22;48626;51.678;5.806;2023-02-18T04:55:12;11.50;99.90
62573;DHT22;48626;51.678;5.806;2023-02-18T04:57:38;11.50;99.90
62573;DHT22;48626;51.678;5.806;2023-02-18T05:00:05;11.50;99.90
62573;DHT22;48626;51.678;5.806;2023-02-18T05:02:32;11.50;99.90
62573;DHT22;48626;51.678;5.806;2023-02-18T05:04:57;11.50;99.90
62573;DHT22;48626;51.678;5.806;2023-02-18T05:07:23;11.50;99.90
62573;DHT22;48626;51.678;5.806;2023-02-18T05:09:49;11.50;99.90
62573;DHT22;48626;51.678;5.806;2023-02-18T05:12:14;11.50;99.90
62573;DHT22;48626;51.678;5.806;2023-02-18T05:14:40;11.50;99.90
62573;DHT22;48626;51.678;5.806;2023-02-18T05:17:06;11.50;99.90
62573;DHT22;48626;51.678;5.806;2023-02-18T05:19:31;11.50;99.90
62573;DHT22;48626;51.678;5.806;2023-02-18T05:21:57;11.50;99.90
62573;DHT22;48626;51.678;5.806;2023-02-18T05:24:23;11.50;99.90
62573;DHT22;48626;51.678;5.806;2023-02-18T05:26:49;11.50;99.90
62573;DHT22;48626;51.678;5.806;2023-02-18T05:29:14;11.40;99.90
62573;DHT22;48626;51.678;5.806;2023-02-18T05:31:40;11.40;99.90
62573;DHT22;48626;51.678;5.806;2023-02-18T05:34:06;11.40;99.90
62573;DHT22;48626;51.678;5.806;2023-02-18T05:36:32;11.30;99.90
62573;DHT22;48626;51.678;5.806;2023-02-18T05:38:57;11.30;99.90
62573;DHT22;48626;51.678;5.806;2023-02-18T05:41:23;11.30;99.90
62573;DHT22;48626;51.678;5.806;2023-02-18T05:43:49;11.30;99.90
62573;DHT22;48626;51.678;5.806;2023-02-18T05:46:33;11.30;99.90
62573;DHT22;48626;51.678;5.806;2023-02-18T05:48:58;11.20;99.90
62573;DHT22;48626;51.678;5.806;2023-02-18T05:51:24;11.20;99.90
62573;DHT22;48626;51.678;5.806;2023-02-18T05:53:50;11.20;99.90
62573;DHT22;48626;51.678;5.806;2023-02-18T05:56:15;11.20;99.90
62573;DHT22;48626;51.678;5.806;2023-02-18T05:58:41;11.20;99.90
62573;DHT22;48626;51.678;5.806;2023-02-18T06:01:07;11.10;99.90
62573;DHT22;48626;51.678;5.806;2023-02-18T06:03:32;11.20;99.90
62573;DHT22;48626;51.678;5.806;2023-02-18T06:05:58;11.20;99.90
62573;DHT22;48626;51.678;5.806;2023-02-18T06:08:24;11.20;99.90
62573;DHT22;48626;51.678;5.806;2023-02-18T06:10:49;11.20;99.90
62573;DHT22;48626;51.678;5.806;2023-02-18T06:13:15;11.10;99.90
62573;DHT22;48626;51.678;5.806;2023-02-18T06:15:41;11.20;99.90
62573;DHT22;48626;51.678;5.806;2023-02-18T06:18:06;11.20;99.90
62573;DHT22;48626;51.678;5.806;2023-02-18T06:20:32;11.20;99.90
62573;DHT22;48626;51.678;5.806;2023-02-18T06:22:58;11.10;99.90
62573;DHT22;48626;51.678;5.806;2023-02-18T06:25:23;11.20;99.90
62573;DHT22;48626;51.678;5.806;2023-02-18T06:27:49;11.20;99.90
62573;DHT22;48626;51.678;5.806;2023-02-18T06:30:15;11.20;99.90
62573;DHT22;48626;51.678;5.806;2023-02-18T06:32:40;11.20;99.90
62573;DHT22;48626;51.678;5.806;2023-02-18T06:35:06;11.20;99.90
62573;DHT22;48626;51.678;5.806;2023-02-18T06:37:32;11.20;99.90
62573;DHT22;48626;51.678;5.806;2023-02-18T06:39:58;11.20;99.90
62573;DHT22;48626;51.678;5.806;2023-02-18T06:42:23;11.20;99.90
62573;DHT22;48626;51.678;5.806;2023-02-18T06:44:49;11.20;99.90
62573;DHT22;48626;51.678;5.806;2023-02-18T06:47:15;11.20;99.90
62573;DHT22;48626;51.678;5.806;2023-02-18T06:49:40;11.20;99.90
62573;DHT22;48626;51.678;5.806;2023-02-18T06:52:06;11.20;99.90
62573;DHT22;48626;51.678;5.806;2023-02-18T06:54:32;11.20;99.90
62573;DHT22;48626;51.678;5.806;2023-02-18T06:56:58;11.20;99.90
62573;DHT22;48626;51.678;5.806;2023-02-18T06:59:24;11.20;99.90
62573;DHT22;48626;51.678;5.806;2023-02-18T07:01:50;11.20;99.90
62573;DHT22;48626;51.678;5.806;2023-02-18T07:04:16;11.20;99.90
62573;DHT22;48626;51.678;5.806;2023-02-18T07:06:41;11.20;99.90
62573;DHT22;48626;51.678;5.806;2023-02-18T07:09:07;11.20;99.90
62573;DHT22;48626;51.678;5.806;2023-02-18T07:11:33;11.10;99.90
62573;DHT22;48626;51.678;5.806;2023-02-18T07:13:58;11.10;99.90
62573;DHT22;48626;51.678;5.806;2023-02-18T07:16:24;11.10;99.90
62573;DHT22;48626;51.678;5.806;2023-02-18T07:18:50;11.20;99.90
62573;DHT22;48626;51.678;5.806;2023-02-18T07:21:15;11.10;99.90
62573;DHT22;48626;51.678;5.806;2023-02-18T07:23:41;11.10;99.90
62573;DHT22;48626;51.678;5.806;2023-02-18T07:26:09;11.00;99.90
62573;DHT22;48626;51.678;5.806;2023-02-18T07:28:35;11.00;99.90
62573;DHT22;48626;51.678;5.806;2023-02-18T07:31:01;11.00;99.90
62573;DHT22;48626;51.678;5.806;2023-02-18T07:33:27;11.00;99.90
62573;DHT22;48626;51.678;5.806;2023-02-18T07:35:55;11.00;99.90
62573;DHT22;48626;51.678;5.806;2023-02-18T07:38:21;11.00;99.90
62573;DHT22;48626;51.678;5.806;2023-02-18T07:40:48;11.00;99.90
62573;DHT22;48626;51.678;5.806;2023-02-18T07:43:13;10.90;99.90
62573;DHT22;48626;51.678;5.806;2023-02-18T07:45:39;10.90;99.90
62573;DHT22;48626;51.678;5.806;2023-02-18T07:48:05;10.90;99.90
62573;DHT22;48626;51.678;5.806;2023-02-18T07:50:31;10.80;99.90
62573;DHT22;48626;51.678;5.806;2023-02-18T07:53:00;10.80;99.90
62573;DHT22;48626;51.678;5.806;2023-02-18T07:55:26;10.80;99.90
62573;DHT22;48626;51.678;5.806;2023-02-18T07:58:15;10.80;99.90
62573;DHT22;48626;51.678;5.806;2023-02-18T08:00:41;10.70;99.90
62573;DHT22;48626;51.678;5.806;2023-02-18T08:03:06;10.70;99.90
62573;DHT22;48626;51.678;5.806;2023-02-18T08:05:32;10.70;99.90
62573;DHT22;48626;51.678;5.806;2023-02-18T08:07:58;10.60;99.90
62573;DHT22;48626;51.678;5.806;2023-02-18T08:10:23;10.70;99.90
62573;DHT22;48626;51.678;5.806;2023-02-18T08:12:49;10.70;99.90
62573;DHT22;48626;51.678;5.806;2023-02-18T08:15:15;10.70;99.90
62573;DHT22;48626;51.678;5.806;2023-02-18T08:17:40;10.70;99.90
62573;DHT22;48626;51.678;5.806;2023-02-18T08:20:07;10.80;99.90
62573;DHT22;48626;51.678;5.806;2023-02-18T08:22:32;10.80;99.90
62573;DHT22;48626;51.678;5.806;2023-02-18T08:24:58;10.90;99.90
62573;DHT22;48626;51.678;5.806;2023-02-18T08:27:24;11.00;99.90
62573;DHT22;48626;51.678;5.806;2023-02-18T08:29:50;11.00;99.90
62573;DHT22;48626;51.678;5.806;2023-02-18T08:32:16;11.00;99.90
62573;DHT22;48626;51.678;5.806;2023-02-18T08:34:41;11.10;99.90
62573;DHT22;48626;51.678;5.806;2023-02-18T08:37:07;11.00;99.90
62573;DHT22;48626;51.678;5.806;2023-02-18T08:39:34;11.00;99.90
62573;DHT22;48626;51.678;5.806;2023-02-18T08:42:00;11.10;99.90
62573;DHT22;48626;51.678;5.806;2023-02-18T08:44:26;11.00;99.90
62573;DHT22;48626;51.678;5.806;2023-02-18T08:46:52;11.10;99.90
62573;DHT22;48626;51.678;5.806;2023-02-18T08:49:17;11.10;99.90
62573;DHT22;48626;51.678;5.806;2023-02-18T08:51:46;11.10;99.90
62573;DHT22;48626;51.678;5.806;2023-02-18T08:54:12;11.10;99.90
62573;DHT22;48626;51.678;5.806;2023-02-18T08:56:38;11.20;99.90
62573;DHT22;48626;51.678;5.806;2023-02-18T08:59:04;11.20;99.90
62573;DHT22;48626;51.678;5.806;2023-02-18T09:01:30;11.20;99.90
62573;DHT22;48626;51.678;5.806;2023-02-18T09:03:56;11.20;99.90
62573;DHT22;48626;51.678;5.806;2023-02-18T09:06:22;11.20;99.90
62573;DHT22;48626;51.678;5.806;2023-02-18T09:08:48;11.20;99.90
62573;DHT22;48626;51.678;5.806;2023-02-18T09:11:14;11.20;99.90
62573;DHT22;48626;51.678;5.806;2023-02-18T09:13:40;11.10;99.90
62573;DHT22;48626;51.678;5.806;2023-02-18T09:16:11;11.00;99.90
62573;DHT22;48626;51.678;5.806;2023-02-18T09:18:37;11.00;99.90
62573;DHT22;48626;51.678;5.806;2023-02-18T09:21:05;10.90;99.90
62573;DHT22;48626;51.678;5.806;2023-02-18T09:23:32;10.90;99.90
62573;DHT22;48626;51.678;5.806;2023-02-18T09:25:58;10.80;99.90
62573;DHT22;48626;51.678;5.806;2023-02-18T09:28:24;10.80;99.90
62573;DHT22;48626;51.678;5.806;2023-02-18T09:30:51;10.80;99.90
62573;DHT22;48626;51.678;5.806;2023-02-18T09:33:17;10.70;99.90
62573;DHT22;48626;51.678;5.806;2023-02-18T09:35:45;10.70;99.90
62573;DHT22;48626;51.678;5.806;2023-02-18T09:38:14;10.70;99.90
62573;DHT22;48626;51.678;5.806;2023-02-18T09:40:46;10.70;99.90
62573;DHT22;48626;51.678;5.806;2023-02-18T09:43:37;10.70;99.90
62573;DHT22;48626;51.678;5.806;2023-02-18T09:48:47;10.80;99.90
62573;DHT22;48626;51.678;5.806;2023-02-18T09:51:14;10.80;99.90
62573;DHT22;48626;51.678;5.806;2023-02-18T09:53:42;10.80;99.90
62573;DHT22;48626;51.678;5.806;2023-02-18T09:56:14;10.80;99.90
62573;DHT22;48626;51.678;5.806;2023-02-18T09:58:41;10.70;99.90
62573;DHT22;48626;51.678;5.806;2023-02-18T10:03:36;10.70;99.90
62573;DHT22;48626;51.678;5.806;2023-02-18T10:06:05;10.70;99.90
62573;DHT22;48626;51.678;5.806;2023-02-18T10:08:37;10.80;99.90
62573;DHT22;48626;51.678;5.806;2023-02-18T10:11:03;10.80;99.90
62573;DHT22;48626;51.678;5.806;2023-02-18T10:13:37;10.90;99.90
62573;DHT22;48626;51.678;5.806;2023-02-18T10:16:03;10.90;99.90
62573;DHT22;48626;51.678;5.806;2023-02-18T10:18:35;11.00;99.90
62573;DHT22;48626;51.678;5.806;2023-02-18T10:21:13;11.00;99.90
62573;DHT22;48626;51.678;5.806;2023-02-18T10:24:05;11.10;99.90
62573;DHT22;48626;51.678;5.806;2023-02-18T10:26:30;11.10;99.90
62573;DHT22;48626;51.678;5.806;2023-02-18T10:28:58;11.10;99.90
62573;DHT22;48626;51.678;5.806;2023-02-18T10:31:36;11.10;99.90
62573;DHT22;48626;51.678;5.806;2023-02-18T10:36:46;11.10;99.90
62573;DHT22;48626;51.678;5.806;2023-02-18T10:39:33;11.10;99.90
62573;DHT22;48626;51.678;5.806;2023-02-18T10:50:41;11.20;99.90
62573;DHT22;48626;51.678;5.806;2023-02-18T10:53:52;11.20;99.90
62573;DHT22;48626;51.678;5.806;2023-02-18T10:55:59;11.20;99.90
62573;DHT22;48626;51.678;5.806;2023-02-18T10:58:26;11.10;99.90
62573;DHT22;48626;51.678;5.806;2023-02-18T11:00:53;11.10;99.90
62573;DHT22;48626;51.678;5.806;2023-02-18T11:03:37;11.10;99.90
62573;DHT22;48626;51.678;5.806;2023-02-18T11:06:04;11.10;99.90
62573;DHT22;48626;51.678;5.806;2023-02-18T11:08:39;11.00;99.90
62573;DHT22;48626;51.678;5.806;2023-02-18T11:11:24;11.00;99.90
62573;DHT22;48626;51.678;5.806;2023-02-18T11:13:56;11.00;99.90
62573;DHT22;48626;51.678;5.806;2023-02-18T11:16:23;10.90;99.90
62573;DHT22;48626;51.678;5.806;2023-02-18T11:19:00;10.90;99.90
62573;DHT22;48626;51.678;5.806;2023-02-18T11:21:37;10.90;99.90
62573;DHT22;48626;51.678;5.806;2023-02-18T11:24:15;10.90;99.90
62573;DHT22;48626;51.678;5.806;2023-02-18T11:26:41;10.90;99.90
62573;DHT22;48626;51.678;5.806;2023-02-18T11:29:24;10.90;99.90
62573;DHT22;48626;51.678;5.806;2023-02-18T11:31:53;10.90;99.90
62573;DHT22;48626;51.678;5.806;2023-02-18T11:34:22;10.90;99.90
62573;DHT22;48626;51.678;5.806;2023-02-18T11:36:49;10.90;99.90
62573;DHT22;48626;51.678;5.806;2023-02-18T11:39:26;10.90;99.90
62573;DHT22;48626;51.678;5.806;2023-02-18T11:42:03;11.00;99.90
62573;DHT22;48626;51.678;5.806;2023-02-18T11:47:18;11.00;99.90
62573;DHT22;48626;51.678;5.806;2023-02-18T11:52:35;11.10;99.90
62573;DHT22;48626;51.678;5.806;2023-02-18T11:55:30;11.00;99.90
62573;DHT22;48626;51.678;5.806;2023-02-18T11:58:04;11.10;99.90
62573;DHT22;48626;51.678;5.806;2023-02-18T12:00:46;11.10;99.90
62573;DHT22;48626;51.678;5.806;2023-02-18T12:05:44;11.20;99.90
62573;DHT22;48626;51.678;5.806;2023-02-18T12:08:16;11.20;99.90
62573;DHT22;48626;51.678;5.806;2023-02-18T12:10:50;11.30;99.90
62573;DHT22;48626;51.678;5.806;2023-02-18T12:13:37;11.50;99.90
62573;DHT22;48626;51.678;5.806;2023-02-18T12:27:07;11.90;99.90
62573;DHT22;48626;51.678;5.806;2023-02-18T12:32:45;12.00;99.90
62573;DHT22;48626;51.678;5.806;2023-02-18T12:46:37;12.10;99.90
62573;DHT22;48626;51.678;5.806;2023-02-18T12:53:10;12.20;99.90
62573;DHT22;48626;51.678;5.806;2023-02-18T12:55:29;12.20;99.90
62573;DHT22;48626;51.678;5.806;2023-02-18T13:01:20;12.30;99.90
62573;DHT22;48626;51.678;5.806;2023-02-18T13:04:23;12.40;99.90
62573;DHT22;48626;51.678;5.806;2023-02-18T13:10:11;12.60;99.90
62573;DHT22;48626;51.678;5.806;2023-02-18T13:12:50;12.70;99.90
62573;DHT22;48626;51.678;5.806;2023-02-18T13:15:24;12.70;99.90
62573;DHT22;48626;51.678;5.806;2023-02-18T13:17:56;12.70;99.90
62573;DHT22;48626;51.678;5.806;2023-02-18T13:20:44;12.80;99.90
62573;DHT22;48626;51.678;5.806;2023-02-18T13:23:22;12.80;99.90
62573;DHT22;48626;51.678;5.806;2023-02-18T13:25:55;12.80;99.90
62573;DHT22;48626;51.678;5.806;2023-02-18T13:31:05;12.80;99.90
62573;DHT22;48626;51.678;5.806;2023-02-18T13:39:21;13.10;99.90
62573;DHT22;48626;51.678;5.806;2023-02-18T13:41:49;13.00;99.90
62573;DHT22;48626;51.678;5.806;2023-02-18T13:46:49;12.90;99.90
62573;DHT22;48626;51.678;5.806;2023-02-18T13:49:19;12.90;99.90
62573;DHT22;48626;51.678;5.806;2023-02-18T13:51:50;12.90;99.90
62573;DHT22;48626;51.678;5.806;2023-02-18T13:54:22;12.80;99.90
62573;DHT22;48626;51.678;5.806;2023-02-18T13:56:54;12.80;99.90
62573;DHT22;48626;51.678;5.806;2023-02-18T13:59:28;12.80;99.90
62573;DHT22;48626;51.678;5.806;2023-02-18T14:09:51;12.70;99.90
62573;DHT22;48626;51.678;5.806;2023-02-18T14:14:55;12.80;99.90
62573;DHT22;48626;51.678;5.806;2023-02-18T14:22:31;12.80;99.90
62573;DHT22;48626;51.678;5.806;2023-02-18T14:27:38;12.80;99.90
62573;DHT22;48626;51.678;5.806;2023-02-18T14:30:15;12.80;99.90
62573;DHT22;48626;51.678;5.806;2023-02-18T14:32:43;12.80;99.90
62573;DHT22;48626;51.678;5.806;2023-02-18T14:35:27;12.80;99.90
62573;DHT22;48626;51.678;5.806;2023-02-18T14:51:39;13.10;99.90
62573;DHT22;48626;51.678;5.806;2023-02-18T14:54:12;13.20;99.90
62573;DHT22;48626;51.678;5.806;2023-02-18T14:56:58;13.10;99.90
62573;DHT22;48626;51.678;5.806;2023-02-18T14:59:28;13.20;99.90
62573;DHT22;48626;51.678;5.806;2023-02-18T15:01:55;13.20;99.90
62573;DHT22;48626;51.678;5.806;2023-02-18T15:04:23;13.30;99.90
62573;DHT22;48626;51.678;5.806;2023-02-18T15:07:01;13.30;99.90
62573;DHT22;48626;51.678;5.806;2023-02-18T15:09:27;13.40;99.90
62573;DHT22;48626;51.678;5.806;2023-02-18T15:11:57;13.40;99.90
62573;DHT22;48626;51.678;5.806;2023-02-18T15:14:41;13.50;99.90
62573;DHT22;48626;51.678;5.806;2023-02-18T15:17:13;13.50;99.90
62573;DHT22;48626;51.678;5.806;2023-02-18T15:19:42;13.60;99.90
62573;DHT22;48626;51.678;5.806;2023-02-18T15:22:21;13.50;99.90
62573;DHT22;48626;51.678;5.806;2023-02-18T15:24:48;13.60;99.90
62573;DHT22;48626;51.678;5.806;2023-02-18T15:27:21;13.50;99.90
62573;DHT22;48626;51.678;5.806;2023-02-18T15:29:52;13.50;99.90
62573;DHT22;48626;51.678;5.806;2023-02-18T15:32:23;13.40;99.90
62573;DHT22;48626;51.678;5.806;2023-02-18T15:34:53;13.40;99.90
62573;DHT22;48626;51.678;5.806;2023-02-18T15:37:20;13.40;99.90
62573;DHT22;48626;51.678;5.806;2023-02-18T15:39:46;13.30;99.90
62573;DHT22;48626;51.678;5.806;2023-02-18T15:42:42;13.30;99.90
62573;DHT22;48626;51.678;5.806;2023-02-18T15:47:53;13.20;99.90
62573;DHT22;48626;51.678;5.806;2023-02-18T15:50:25;13.20;99.90
62573;DHT22;48626;51.678;5.806;2023-02-18T15:52:53;13.20;99.90
62573;DHT22;48626;51.678;5.806;2023-02-18T15:55:34;13.20;99.90
62573;DHT22;48626;51.678;5.806;2023-02-18T15:58:03;13.20;99.90
62573;DHT22;48626;51.678;5.806;2023-02-18T16:00:34;13.10;99.90
62573;DHT22;48626;51.678;5.806;2023-02-18T16:03:03;13.00;99.90
62573;DHT22;48626;51.678;5.806;2023-02-18T16:05:37;13.00;99.90
62573;DHT22;48626;51.678;5.806;2023-02-18T16:08:16;13.00;99.90
62573;DHT22;48626;51.678;5.806;2023-02-18T16:10:54;13.10;99.90
62573;DHT22;48626;51.678;5.806;2023-02-18T16:13:20;13.00;99.90
62573;DHT22;48626;51.678;5.806;2023-02-18T16:15:49;12.90;99.90
62573;DHT22;48626;51.678;5.806;2023-02-18T16:21:01;12.90;99.90
62573;DHT22;48626;51.678;5.806;2023-02-18T16:23:55;12.90;99.90
62573;DHT22;48626;51.678;5.806;2023-02-18T16:26:26;12.80;99.90
62573;DHT22;48626;51.678;5.806;2023-02-18T16:28:53;12.80;99.90
62573;DHT22;48626;51.678;5.806;2023-02-18T16:31:20;12.80;99.90
62573;DHT22;48626;51.678;5.806;2023-02-18T16:33:47;12.70;99.90
62573;DHT22;48626;51.678;5.806;2023-02-18T16:36:14;12.70;99.90
62573;DHT22;48626;51.678;5.806;2023-02-18T16:38:41;12.70;99.90
62573;DHT22;48626;51.678;5.806;2023-02-18T16:41:09;12.70;99.90
62573;DHT22;48626;51.678;5.806;2023-02-18T16:43:36;12.70;99.90
62573;DHT22;48626;51.678;5.806;2023-02-18T16:46:16;12.70;99.90
62573;DHT22;48626;51.678;5.806;2023-02-18T16:48:48;12.70;99.90
62573;DHT22;48626;51.678;5.806;2023-02-18T16:51:28;12.70;99.90
62573;DHT22;48626;51.678;5.806;2023-02-18T16:53:54;12.70;99.90
62573;DHT22;48626;51.678;5.806;2023-02-18T16:56:25;12.70;99.90
62573;DHT22;48626;51.678;5.806;2023-02-18T16:58:51;12.70;99.90
62573;DHT22;48626;51.678;5.806;2023-02-18T17:01:30;12.70;99.90
62573;DHT22;48626;51.678;5.806;2023-02-18T17:03:57;12.70;99.90
62573;DHT22;48626;51.678;5.806;2023-02-18T17:06:23;12.70;99.90
62573;DHT22;48626;51.678;5.806;2023-02-18T17:08:48;12.70;99.90
62573;DHT22;48626;51.678;5.806;2023-02-18T17:11:24;12.70;99.90
62573;DHT22;48626;51.678;5.806;2023-02-18T17:13:51;12.70;99.90
62573;DHT22;48626;51.678;5.806;2023-02-18T17:16:18;12.70;99.90
62573;DHT22;48626;51.678;5.806;2023-02-18T17:18:45;12.70;99.90
62573;DHT22;48626;51.678;5.806;2023-02-18T17:21:12;12.70;99.90
62573;DHT22;48626;51.678;5.806;2023-02-18T17:23:38;12.70;99.90
62573;DHT22;48626;51.678;5.806;2023-02-18T17:26:04;12.70;99.90
62573;DHT22;48626;51.678;5.806;2023-02-18T17:28:34;12.80;99.90
62573;DHT22;48626;51.678;5.806;2023-02-18T17:31:00;12.70;99.90
62573;DHT22;48626;51.678;5.806;2023-02-18T17:33:25;12.70;99.90
62573;DHT22;48626;51.678;5.806;2023-02-18T17:35:51;12.70;99.90
62573;DHT22;48626;51.678;5.806;2023-02-18T17:38:18;12.70;99.90
62573;DHT22;48626;51.678;5.806;2023-02-18T17:40:44;12.70;99.90
62573;DHT22;48626;51.678;5.806;2023-02-18T17:43:12;12.70;99.90
62573;DHT22;48626;51.678;5.806;2023-02-18T17:46:02;12.60;99.90
62573;DHT22;48626;51.678;5.806;2023-02-18T17:48:27;12.50;99.90
62573;DHT22;48626;51.678;5.806;2023-02-18T17:50:52;12.40;99.90
62573;DHT22;48626;51.678;5.806;2023-02-18T17:53:18;12.30;99.90
62573;DHT22;48626;51.678;5.806;2023-02-18T17:55:45;12.20;99.90
62573;DHT22;48626;51.678;5.806;2023-02-18T17:58:12;12.10;99.90
62573;DHT22;48626;51.678;5.806;2023-02-18T18:00:40;12.00;99.90
62573;DHT22;48626;51.678;5.806;2023-02-18T18:03:06;12.00;99.90
62573;DHT22;48626;51.678;5.806;2023-02-18T18:05:35;12.00;99.90
62573;DHT22;48626;51.678;5.806;2023-02-18T18:08:02;12.00;99.90
62573;DHT22;48626;51.678;5.806;2023-02-18T18:10:30;11.90;99.90
62573;DHT22;48626;51.678;5.806;2023-02-18T18:13:02;11.90;99.90
62573;DHT22;48626;51.678;5.806;2023-02-18T18:15:40;11.90;99.90